| time (UTC) | temp F | wind direction | speed MPH | gust MPH | rain 1hr in | rain 24hr in | rain mn in | humidity % | barometer mb |
| 20260510192413 | 44 | 331 | 11.0 | 16.0 | 0.00 | 0.01 | 0.01 | 69 | 1014.5 |
| 20260510191644 | 44 | 258 | 7.0 | 16.0 | 0.01 | 0.01 | 0.01 | 69 | 1014.5 |
| 20260510191413 | 44 | 313 | 9.0 | 18.0 | 0.01 | 0.01 | 0.01 | 72 | 1014.6 |
| 20260510190642 | 43 | 309 | 9.0 | 21.0 | 0.01 | 0.01 | 0.01 | 72 | 1014.6 |
| 20260510190142 | 42 | 323 | 13.0 | 21.0 | 0.01 | 0.01 | 0.01 | 75 | 1014.6 |
| 20260510185639 | 42 | 315 | 9.0 | 25.0 | 0.01 | 0.01 | 0.01 | 75 | 1014.6 |
| 20260510185138 | 42 | 329 | 13.0 | 25.0 | 0.01 | 0.01 | 0.01 | 77 | 1014.6 |
| 20260510184638 | 42 | 310 | 14.0 | 24.0 | 0.01 | 0.01 | 0.01 | 74 | 1014.5 |
| 20260510184135 | 44 | 274 | 2.0 | 10.0 | 0.01 | 0.01 | 0.01 | 75 | 1014.1 |
| 20260510183645 | 43 | 268 | 7.0 | 13.0 | 0.01 | 0.01 | 0.01 | 77 | 1014.1 |
| 20260510183637 | 44 | 279 | 4.0 | 10.0 | 0.01 | 0.01 | 0.01 | 77 | 1014.1 |
| 20260510182634 | 43 | 274 | 6.0 | 16.0 | 0.01 | 0.01 | 0.01 | 77 | 1014.0 |
| 20260510182132 | 43 | 282 | 8.0 | 16.0 | 0.01 | 0.01 | 0.01 | 74 | 1013.9 |
| 20260510181634 | 44 | 260 | 10.0 | 13.0 | 0.00 | 0.00 | 0.00 | 72 | 1013.7 |
| 20260510181131 | 44 | 220 | 7.0 | 13.0 | 0.00 | 0.00 | 0.00 | 74 | 1013.6 |
| 20260510180904 | 44 | 302 | 9.0 | 13.0 | 0.00 | 0.00 | 0.00 | 74 | 1013.6 |
| 20260510180131 | 43 | 239 | 6.0 | 20.0 | 0.00 | 0.00 | 0.00 | 80 | 1013.7 |
| 20260510175630 | 43 | 230 | 6.0 | 20.0 | 0.00 | 0.00 | 0.00 | 75 | 1013.6 |
| 20260510175358 | 44 | 260 | 14.0 | 20.0 | 0.00 | 0.00 | 0.00 | 69 | 1013.7 |
| 20260510174637 | 45 | 241 | 8.0 | 13.0 | 0.00 | 0.00 | 0.00 | 69 | 1013.3 |
| 20260510174629 | 44 | 241 | 10.0 | 16.0 | 0.00 | 0.00 | 0.00 | 66 | 1013.5 |
| 20260510173626 | 45 | 286 | 10.0 | 11.0 | 0.00 | 0.00 | 0.00 | 66 | 1013.3 |
| 20260510173124 | 45 | 257 | 6.0 | 10.0 | 0.00 | 0.00 | 0.00 | 67 | 1013.3 |
| 20260510172625 | 45 | 251 | 6.0 | 10.0 | 0.00 | 0.00 | 0.00 | 71 | 1013.2 |
| 20260510172123 | 44 | 250 | 6.0 | 10.0 | 0.00 | 0.00 | 0.00 | 71 | 1013.3 |
| 20260510171623 | 44 | 251 | 4.0 | 11.0 | 0.00 | 0.00 | 0.00 | 73 | 1013.3 |
| 20260510171120 | 44 | 202 | 7.0 | 11.0 | 0.00 | 0.00 | 0.00 | 72 | 1013.4 |
| 20260510170622 | 44 | 215 | 8.0 | 15.0 | 0.00 | 0.00 | 0.00 | 71 | 1013.4 |
| 20260510170119 | 44 | 302 | 6.0 | 15.0 | 0.00 | 0.00 | 0.00 | 71 | 1013.4 |
| 20260510165620 | 44 | 232 | 7.0 | 14.0 | 0.00 | 0.00 | 0.00 | 71 | 1013.4 |
| 20260510165350 | 44 | 293 | 3.0 | 11.0 | 0.00 | 0.00 | 0.00 | 70 | 1013.3 |
| 20260510164620 | 44 | 341 | 6.0 | 11.0 | 0.00 | 0.00 | 0.00 | 70 | 1013.2 |
| 20260510164116 | 44 | 331 | 6.0 | 11.0 | 0.00 | 0.00 | 0.00 | 69 | 1013.2 |
| 20260510163618 | 44 | 1 | 6.0 | 10.0 | 0.00 | 0.00 | 0.00 | 68 | 1013.2 |
| 20260510163117 | 45 | 338 | 6.0 | 9.0 | 0.00 | 0.00 | 0.00 | 68 | 1013.1 |
| 20260510162616 | 45 | 300 | 6.0 | 13.0 | 0.00 | 0.00 | 0.00 | 64 | 1013.0 |
| 20260510162112 | 45 | 225 | 6.0 | 15.0 | 0.00 | 0.00 | 0.00 | 66 | 1012.9 |
| 20260510161612 | 44 | 230 | 9.0 | 18.0 | 0.00 | 0.00 | 0.00 | 70 | 1012.9 |
| 20260510161111 | 44 | 215 | 10.0 | 21.0 | 0.00 | 0.00 | 0.00 | 67 | 1012.9 |
| 20260510160611 | 44 | 247 | 14.0 | 21.0 | 0.00 | 0.00 | 0.00 | 68 | 1012.8 |
| 20260510160109 | 45 | 253 | 14.0 | 20.0 | 0.00 | 0.00 | 0.00 | 64 | 1012.9 |
| 20260510155611 | 46 | 272 | 10.0 | 15.0 | 0.00 | 0.00 | 0.00 | 57 | 1012.8 |
| 20260510155340 | 46 | 262 | 10.0 | 15.0 | 0.00 | 0.00 | 0.00 | 54 | 1012.8 |
| 20260510154609 | 46 | 270 | 11.0 | 14.0 | 0.00 | 0.00 | 0.00 | 57 | 1012.7 |
| 20260510154107 | 45 | 255 | 9.0 | 13.0 | 0.00 | 0.00 | 0.00 | 58 | 1012.7 |
| 20260510153841 | 45 | 319 | 8.0 | 13.0 | 0.00 | 0.00 | 0.00 | 57 | 1012.7 |
| 20260510153105 | 45 | 305 | 8.0 | 17.0 | 0.00 | 0.00 | 0.00 | 61 | 1012.6 |
| 20260510152608 | 44 | 295 | 9.0 | 17.0 | 0.00 | 0.00 | 0.00 | 62 | 1012.6 |
| 20260510152106 | 44 | 265 | 11.0 | 16.0 | 0.00 | 0.00 | 0.00 | 56 | 1012.5 |
| 20260510151604 | 44 | 319 | 9.0 | 16.0 | 0.00 | 0.00 | 0.00 | 59 | 1012.5 |
| 20260510151103 | 45 | 324 | 5.0 | 16.0 | 0.00 | 0.00 | 0.00 | 58 | 1012.5 |
| 20260510150604 | 44 | 307 | 7.0 | 17.0 | 0.00 | 0.00 | 0.00 | 62 | 1012.5 |
| 20260510150105 | 44 | 284 | 12.0 | 17.0 | 0.00 | 0.00 | 0.00 | 61 | 1012.4 |
| 20260510145600 | 44 | 310 | 9.0 | 16.0 | 0.00 | 0.00 | 0.00 | 61 | 1012.4 |
| 20260510145057 | 45 | 284 | 9.0 | 15.0 | 0.00 | 0.00 | 0.00 | 65 | 1012.3 |
| 20260510144558 | 44 | 317 | 10.0 | 15.0 | 0.00 | 0.00 | 0.00 | 62 | 1012.2 |
| 20260510144055 | 44 | 289 | 9.0 | 14.0 | 0.00 | 0.00 | 0.00 | 64 | 1012.2 |
| 20260510143829 | 44 | 262 | 7.0 | 14.0 | 0.00 | 0.00 | 0.00 | 66 | 1012.1 |
| 20260510143054 | 44 | 303 | 9.0 | 15.0 | 0.00 | 0.00 | 0.00 | 64 | 1012.1 |
| 20260510142557 | 44 | 288 | 9.0 | 15.0 | 0.00 | 0.00 | 0.00 | 66 | 1012.1 |
| 20260510142052 | 43 | 250 | 7.0 | 14.0 | 0.00 | 0.00 | 0.00 | 69 | 1012.0 |
| 20260510141825 | 44 | 286 | 7.0 | 14.0 | 0.00 | 0.00 | 0.00 | 68 | 1012.0 |
| 20260510141727 | 44 | 285 | 3.0 | 14.0 | 0.00 | 0.00 | 0.00 | 69 | 1011.9 |
| 20260510140555 | 43 | 265 | 9.0 | 13.0 | 0.00 | 0.00 | 0.00 | 68 | 1011.9 |
| 20260510140101 | 43 | 292 | 9.0 | 17.0 | 0.00 | 0.00 | 0.00 | 71 | 1011.7 |
| 20260510135551 | 42 | 336 | 9.0 | 17.0 | 0.00 | 0.00 | 0.00 | 70 | 1011.7 |
| 20260510135048 | 43 | 271 | 8.0 | 16.0 | 0.00 | 0.00 | 0.00 | 73 | 1011.6 |
| 20260510134602 | 42 | 272 | 8.0 | 16.0 | 0.00 | 0.00 | 0.00 | 72 | 1011.6 |
| 20260510134047 | 43 | 278 | 6.0 | 14.0 | 0.00 | 0.00 | 0.00 | 72 | 1011.6 |
| 20260510133547 | 42 | 324 | 4.0 | 14.0 | 0.00 | 0.00 | 0.00 | 75 | 1011.6 |
| 20260510133045 | 42 | 291 | 11.0 | 14.0 | 0.00 | 0.00 | 0.00 | 76 | 1011.5 |
| 20260510132546 | 42 | 306 | 5.0 | 14.0 | 0.00 | 0.00 | 0.00 | 76 | 1011.5 |
| 20260510132043 | 42 | 267 | 9.0 | 14.0 | 0.00 | 0.00 | 0.00 | 77 | 1011.4 |
| 20260510131545 | 42 | 292 | 5.0 | 11.0 | 0.00 | 0.00 | 0.00 | 78 | 1011.4 |
| 20260510131041 | 41 | 306 | 7.0 | 11.0 | 0.00 | 0.00 | 0.00 | 76 | 1011.5 |
| 20260510130543 | 41 | 300 | 8.0 | 14.0 | 0.00 | 0.00 | 0.00 | 76 | 1011.4 |
| 20260510130052 | 42 | 288 | 8.0 | 14.0 | 0.00 | 0.00 | 0.00 | 79 | 1011.3 |
| 20260510125544 | 41 | 295 | 7.0 | 13.0 | 0.00 | 0.00 | 0.00 | 79 | 1011.2 |
| 20260510125040 | 41 | 307 | 7.0 | 13.0 | 0.00 | 0.00 | 0.00 | 78 | 1011.2 |
| 20260510124539 | 41 | 312 | 6.0 | 13.0 | 0.00 | 0.00 | 0.00 | 78 | 1011.1 |
| 20260510124309 | 41 | 303 | 7.0 | 13.0 | 0.00 | 0.00 | 0.00 | 80 | 1011.1 |
| 20260510123538 | 41 | 306 | 8.0 | 13.0 | 0.00 | 0.00 | 0.00 | 79 | 1011.0 |
| 20260510123306 | 40 | 306 | 7.0 | 13.0 | 0.00 | 0.00 | 0.00 | 80 | 1011.0 |
| 20260510122807 | 40 | 291 | 9.0 | 13.0 | 0.00 | 0.00 | 0.00 | 79 | 1011.0 |
| 20260510122031 | 41 | 288 | 6.0 | 14.0 | 0.00 | 0.00 | 0.00 | 81 | 1010.9 |
| 20260510121531 | 40 | 285 | 7.0 | 15.0 | 0.00 | 0.00 | 0.00 | 80 | 1010.9 |
| 20260510121029 | 40 | 286 | 9.0 | 15.0 | 0.00 | 0.00 | 0.00 | 80 | 1010.9 |
| 20260510120532 | 40 | 316 | 8.0 | 13.0 | 0.00 | 0.00 | 0.00 | 81 | 1010.8 |
| 20260510120029 | 40 | 300 | 8.0 | 13.0 | 0.00 | 0.00 | 0.00 | 83 | 1010.8 |
| 20260510115529 | 40 | 278 | 6.0 | 13.0 | 0.00 | 0.00 | 0.00 | 84 | 1010.8 |
| 20260510115028 | 39 | 289 | 5.0 | 11.0 | 0.00 | 0.00 | 0.00 | 84 | 1010.6 |
| 20260510114527 | 39 | 286 | 6.0 | 13.0 | 0.00 | 0.00 | 0.00 | 84 | 1010.5 |
| 20260510114024 | 39 | 320 | 7.0 | 13.0 | 0.00 | 0.00 | 0.00 | 84 | 1010.4 |
| 20260510113526 | 39 | 305 | 7.0 | 15.0 | 0.00 | 0.00 | 0.00 | 84 | 1010.3 |
| 20260510113024 | 39 | 302 | 9.0 | 15.0 | 0.00 | 0.00 | 0.00 | 84 | 1010.2 |
| 20260510112524 | 38 | 317 | 10.0 | 17.0 | 0.00 | 0.00 | 0.00 | 85 | 1010.2 |
| 20260510112021 | 38 | 282 | 8.0 | 17.0 | 0.00 | 0.00 | 0.00 | 87 | 1010.2 |
| 20260510111530 | 38 | 279 | 7.0 | 12.0 | 0.00 | 0.00 | 0.00 | 90 | 1010.0 |
| 20260510111522 | 38 | 284 | 11.0 | 16.0 | 0.00 | 0.00 | 0.00 | 87 | 1010.0 |
| 20260510110520 | 38 | 306 | 8.0 | 10.0 | 0.00 | 0.00 | 0.00 | 91 | 1009.9 |
| 20260510110019 | 38 | 271 | 8.0 | 10.0 | 0.00 | 0.00 | 0.00 | 91 | 1009.7 |
| 20260510105519 | 38 | 253 | 5.0 | 12.0 | 0.00 | 0.00 | 0.00 | 91 | 1009.6 |
| 20260510105016 | 38 | 267 | 4.0 | 13.0 | 0.00 | 0.00 | 0.00 | 91 | 1009.5 |
| 20260510104517 | 38 | 262 | 9.0 | 13.0 | 0.00 | 0.00 | 0.00 | 91 | 1009.3 |
| 20260510104016 | 38 | 261 | 9.0 | 13.0 | 0.00 | 0.00 | 0.00 | 91 | 1009.1 |
| 20260510103515 | 38 | 278 | 6.0 | 13.0 | 0.00 | 0.00 | 0.00 | 91 | 1009.0 |
| 20260510103012 | 38 | 268 | 5.0 | 11.0 | 0.00 | 0.00 | 0.00 | 90 | 1008.9 |
| 20260510102514 | 38 | 261 | 8.0 | 11.0 | 0.00 | 0.00 | 0.00 | 90 | 1008.8 |
| 20260510102014 | 38 | 225 | 7.0 | 11.0 | 0.00 | 0.00 | 0.00 | 90 | 1008.7 |
| 20260510101512 | 38 | 284 | 8.0 | 16.0 | 0.00 | 0.00 | 0.00 | 90 | 1008.5 |
| 20260510101240 | 38 | 288 | 9.0 | 16.0 | 0.00 | 0.00 | 0.00 | 90 | 1008.4 |
| 20260510100510 | 38 | 295 | 10.0 | 14.0 | 0.00 | 0.00 | 0.00 | 90 | 1008.2 |
| 20260510100008 | 38 | 274 | 7.0 | 11.0 | 0.00 | 0.00 | 0.00 | 90 | 1008.1 |
| 20260510095510 | 38 | 291 | 6.0 | 11.0 | 0.00 | 0.00 | 0.00 | 90 | 1008.1 |
| 20260510095006 | 38 | 286 | 6.0 | 13.0 | 0.00 | 0.00 | 0.00 | 90 | 1008.0 |
| 20260510094508 | 38 | 284 | 7.0 | 13.0 | 0.00 | 0.00 | 0.00 | 90 | 1007.9 |
| 20260510094006 | 38 | 268 | 7.0 | 12.0 | 0.00 | 0.00 | 0.00 | 90 | 1007.8 |
| 20260510093507 | 38 | 285 | 6.0 | 14.0 | 0.00 | 0.00 | 0.00 | 89 | 1007.7 |
| 20260510093002 | 39 | 295 | 6.0 | 14.0 | 0.00 | 0.00 | 0.00 | 89 | 1007.8 |
| 20260510092505 | 38 | 285 | 10.0 | 15.0 | 0.00 | 0.00 | 0.00 | 89 | 1007.8 |
| 20260510092001 | 39 | 292 | 7.0 | 15.0 | 0.00 | 0.00 | 0.00 | 89 | 1007.8 |
| 20260510091501 | 39 | 329 | 7.0 | 15.0 | 0.00 | 0.00 | 0.00 | 90 | 1007.6 |
| 20260510091001 | 39 | 289 | 6.0 | 15.0 | 0.00 | 0.00 | 0.00 | 90 | 1007.5 |
| 20260510090502 | 38 | 286 | 8.0 | 13.0 | 0.00 | 0.00 | 0.00 | 90 | 1007.5 |
| 20260510085959 | 38 | 299 | 8.0 | 13.0 | 0.00 | 0.00 | 0.00 | 90 | 1007.4 |
| 20260510085458 | 38 | 295 | 8.0 | 11.0 | 0.00 | 0.00 | 0.00 | 90 | 1007.3 |
| 20260510085226 | 39 | 265 | 6.0 | 11.0 | 0.00 | 0.00 | 0.00 | 90 | 1007.2 |
| 20260510084457 | 39 | 267 | 6.0 | 10.0 | 0.00 | 0.00 | 0.00 | 90 | 1007.2 |
| 20260510083956 | 39 | 284 | 7.0 | 13.0 | 0.00 | 0.00 | 0.00 | 90 | 1007.1 |
| 20260510083455 | 39 | 284 | 6.0 | 13.0 | 0.00 | 0.00 | 0.00 | 90 | 1007.1 |
| 20260510082954 | 38 | 285 | 5.0 | 10.0 | 0.00 | 0.00 | 0.00 | 91 | 1007.0 |
| 20260510082453 | 39 | 293 | 7.0 | 11.0 | 0.00 | 0.00 | 0.00 | 90 | 1006.9 |
| 20260510082223 | 39 | 298 | 6.0 | 11.0 | 0.00 | 0.00 | 0.00 | 90 | 1006.9 |
| 20260510081453 | 39 | 241 | 5.0 | 13.0 | 0.00 | 0.00 | 0.00 | 89 | 1006.8 |
| 20260510080950 | 39 | 293 | 8.0 | 13.0 | 0.00 | 0.00 | 0.00 | 89 | 1006.6 |
| 20260510080502 | 39 | 302 | 7.0 | 11.0 | 0.00 | 0.00 | 0.00 | 89 | 1006.6 |
| 20260510075947 | 39 | 292 | 7.0 | 11.0 | 0.00 | 0.00 | 0.00 | 89 | 1006.5 |
| 20260510075450 | 39 | 281 | 9.0 | 12.0 | 0.00 | 0.00 | 0.00 | 89 | 1006.4 |
| 20260510074949 | 39 | 268 | 9.0 | 12.0 | 0.00 | 0.00 | 0.00 | 89 | 1006.3 |
| 20260510074449 | 39 | 291 | 9.0 | 12.0 | 0.00 | 0.00 | 0.00 | 89 | 1006.3 |
| 20260510073945 | 39 | 285 | 6.0 | 13.0 | 0.00 | 0.00 | 0.00 | 89 | 1006.3 |
| 20260510073446 | 39 | 310 | 6.0 | 13.0 | 0.00 | 0.00 | 0.00 | 89 | 1006.1 |
| 20260510072943 | 39 | 268 | 6.0 | 12.0 | 0.00 | 0.00 | 0.00 | 90 | 1006.1 |
| 20260510072715 | 39 | 293 | 8.0 | 12.0 | 0.00 | 0.00 | 0.00 | 90 | 1006.0 |
| 20260510071941 | 39 | 320 | 5.0 | 13.0 | 0.00 | 0.00 | 0.00 | 90 | 1005.9 |
| 20260510071442 | 39 | 292 | 9.0 | 15.0 | 0.00 | 0.00 | 0.00 | 90 | 1005.9 |
| 20260510070939 | 39 | 274 | 9.0 | 15.0 | 0.00 | 0.00 | 0.00 | 90 | 1005.9 |
| 20260510070441 | 39 | 289 | 7.0 | 16.0 | 0.00 | 0.00 | 0.00 | 91 | 1005.8 |
| 20260510065938 | 39 | 296 | 10.0 | 16.0 | 0.00 | 0.00 | 0.00 | 91 | 1005.8 |
| 20260510065438 | 39 | 284 | 7.0 | 13.0 | 0.00 | 0.00 | 0.00 | 91 | 1005.8 |
| 20260510064936 | 39 | 284 | 9.0 | 12.0 | 0.00 | 0.00 | 0.00 | 91 | 1005.7 |
| 20260510064437 | 39 | 315 | 6.0 | 14.0 | 0.00 | 0.00 | 0.00 | 91 | 1005.6 |
| 20260510063935 | 39 | 306 | 8.0 | 15.0 | 0.00 | 0.00 | 0.00 | 91 | 1005.5 |
| 20260510063438 | 39 | 285 | 11.0 | 15.0 | 0.00 | 0.00 | 0.00 | 90 | 1005.5 |
| 20260510063204 | 39 | 295 | 10.0 | 18.0 | 0.00 | 0.00 | 0.00 | 90 | 1005.4 |
| 20260510062435 | 39 | 270 | 10.0 | 18.0 | 0.00 | 0.00 | 0.00 | 90 | 1005.4 |
| 20260510061931 | 39 | 271 | 9.0 | 18.0 | 0.00 | 0.00 | 0.00 | 90 | 1005.3 |
| 20260510061432 | 39 | 272 | 12.0 | 18.0 | 0.00 | 0.00 | 0.00 | 90 | 1005.3 |
| 20260510060930 | 40 | 261 | 10.0 | 15.0 | 0.00 | 0.00 | 0.00 | 90 | 1005.2 |
| 20260510060431 | 39 | 271 | 9.0 | 13.0 | 0.00 | 0.00 | 0.00 | 91 | 1005.2 |
| 20260510055927 | 40 | 275 | 10.0 | 13.0 | 0.00 | 0.00 | 0.00 | 91 | 1005.1 |
| 20260510055429 | 39 | 302 | 8.0 | 15.0 | 0.00 | 0.00 | 0.00 | 91 | 1005.0 |
| 20260510054926 | 40 | 289 | 10.0 | 15.0 | 0.00 | 0.00 | 0.00 | 91 | 1004.9 |
| 20260510054659 | 40 | 240 | 7.0 | 12.0 | 0.00 | 0.00 | 0.00 | 90 | 1004.9 |
| 20260510053924 | 40 | 278 | 8.0 | 15.0 | 0.00 | 0.00 | 0.00 | 90 | 1004.8 |
| 20260510053427 | 40 | 258 | 7.0 | 15.0 | 0.00 | 0.00 | 0.00 | 90 | 1004.6 |
| 20260510052935 | 40 | 288 | 7.0 | 17.0 | 0.00 | 0.00 | 0.00 | 90 | 1004.4 |
| 20260510052923 | 40 | 295 | 10.0 | 15.0 | 0.00 | 0.00 | 0.00 | 90 | 1004.5 |
| 20260510051925 | 40 | 277 | 9.0 | 19.0 | 0.00 | 0.00 | 0.00 | 89 | 1004.3 |
| 20260510051423 | 40 | 303 | 8.0 | 20.0 | 0.00 | 0.00 | 0.00 | 89 | 1004.2 |
| 20260510050919 | 40 | 285 | 13.0 | 20.0 | 0.00 | 0.00 | 0.00 | 89 | 1004.1 |
| 20260510050421 | 40 | 300 | 12.0 | 19.0 | 0.00 | 0.00 | 0.00 | 90 | 1004.0 |
| 20260510050149 | 40 | 330 | 14.0 | 19.0 | 0.00 | 0.00 | 0.00 | 89 | 1003.9 |
| 20260510045419 | 41 | 289 | 12.0 | 19.0 | 0.00 | 0.00 | 0.00 | 90 | 1003.8 |
| 20260510044916 | 41 | 274 | 9.0 | 18.0 | 0.00 | 0.00 | 0.00 | 90 | 1003.7 |
| 20260510044417 | 41 | 319 | 8.0 | 18.0 | 0.00 | 0.00 | 0.00 | 90 | 1003.6 |
| 20260510043914 | 41 | 288 | 9.0 | 20.0 | 0.00 | 0.00 | 0.00 | 90 | 1003.4 |
| 20260510043416 | 42 | 284 | 9.0 | 20.0 | 0.00 | 0.00 | 0.00 | 91 | 1003.3 |
| 20260510042914 | 42 | 277 | 11.0 | 19.0 | 0.00 | 0.00 | 0.00 | 91 | 1003.3 |
| 20260510042414 | 42 | 312 | 8.0 | 19.0 | 0.00 | 0.00 | 0.00 | 91 | 1003.2 |
| 20260510041911 | 42 | 300 | 11.0 | 19.0 | 0.00 | 0.00 | 0.00 | 91 | 1003.2 |
| 20260510041412 | 42 | 309 | 10.0 | 17.0 | 0.00 | 0.00 | 0.00 | 91 | 1003.0 |
| 20260510040909 | 42 | 292 | 10.0 | 17.0 | 0.00 | 0.00 | 0.00 | 92 | 1002.9 |
| 20260510040413 | 42 | 307 | 7.0 | 17.0 | 0.00 | 0.00 | 0.00 | 92 | 1002.8 |
| 20260510035923 | 42 | 305 | 10.0 | 18.0 | 0.00 | 0.31 | 0.31 | 92 | 1002.8 |
| 20260510035653 | 42 | 288 | 9.0 | 17.0 | 0.00 | 0.31 | 0.31 | 92 | 1002.6 |
| 20260510034922 | 42 | 261 | 8.0 | 14.0 | 0.00 | 0.31 | 0.31 | 92 | 1002.6 |
| 20260510034654 | 42 | 253 | 9.0 | 15.0 | 0.00 | 0.31 | 0.31 | 92 | 1002.4 |
| 20260510034153 | 42 | 282 | 10.0 | 15.0 | 0.00 | 0.31 | 0.31 | 91 | 1002.3 |
| 20260510034057 | 42 | 267 | 10.0 | 16.0 | 0.00 | 0.31 | 0.31 | 91 | 1002.3 |
| 20260510032918 | 42 | 285 | 9.0 | 16.0 | 0.00 | 0.31 | 0.31 | 91 | 1002.2 |
| 20260510032418 | 42 | 262 | 12.0 | 15.0 | 0.00 | 0.31 | 0.31 | 90 | 1002.1 |
| 20260510031929 | 42 | 270 | 9.0 | 16.0 | 0.00 | 0.31 | 0.31 | 90 | 1002.1 |
| 20260510031415 | 42 | 274 | 7.0 | 16.0 | 0.00 | 0.31 | 0.31 | 90 | 1002.0 |
| 20260510030918 | 43 | 265 | 7.0 | 16.0 | 0.00 | 0.31 | 0.31 | 91 | 1001.9 |
| 20260510030415 | 42 | 277 | 9.0 | 17.0 | 0.00 | 0.31 | 0.31 | 91 | 1001.8 |
| 20260510030145 | 42 | 246 | 11.0 | 17.0 | 0.00 | 0.31 | 0.31 | 92 | 1001.8 |
| 20260510030045 | 42 | 264 | 10.0 | 17.0 | 0.00 | 0.31 | 0.31 | 94 | 1001.6 |
| 20260510024912 | 42 | 258 | 8.0 | 11.0 | 0.00 | 0.31 | 0.31 | 94 | 1001.6 |
| 20260510024411 | 42 | 257 | 7.0 | 10.0 | 0.00 | 0.31 | 0.31 | 94 | 1001.5 |
| 20260510023911 | 43 | 267 | 4.0 | 8.0 | 0.00 | 0.31 | 0.31 | 94 | 1001.5 |
| 20260510023409 | 43 | 254 | 6.0 | 8.0 | 0.00 | 0.31 | 0.31 | 94 | 1001.5 |
| 20260510022909 | 43 | 261 | 4.0 | 8.0 | 0.00 | 0.31 | 0.31 | 94 | 1001.5 |
| 20260510022408 | 43 | 219 | 5.0 | 8.0 | 0.00 | 0.31 | 0.31 | 94 | 1001.5 |
| 20260510021908 | 43 | 261 | 4.0 | 8.0 | 0.00 | 0.31 | 0.31 | 94 | 1001.3 |
| 20260510021405 | 43 | 247 | 5.0 | 8.0 | 0.00 | 0.31 | 0.31 | 94 | 1001.2 |
| 20260510020905 | 43 | 257 | 4.0 | 8.0 | 0.00 | 0.31 | 0.31 | 94 | 1001.1 |
| 20260510020637 | 43 | 251 | 4.0 | 8.0 | 0.00 | 0.31 | 0.31 | 94 | 1001.0 |
| 20260510015903 | 43 | 274 | 5.0 | 8.0 | 0.01 | 0.31 | 0.31 | 94 | 1001.0 |
| 20260510015403 | 43 | 243 | 3.0 | 7.0 | 0.01 | 0.31 | 0.31 | 94 | 1001.0 |
| 20260510014902 | 43 | 270 | 4.0 | 7.0 | 0.01 | 0.31 | 0.31 | 94 | 1000.9 |
| 20260510014401 | 43 | 227 | 5.0 | 7.0 | 0.01 | 0.31 | 0.31 | 93 | 1000.8 |
| 20260510013901 | 43 | 264 | 3.0 | 6.0 | 0.01 | 0.31 | 0.31 | 93 | 1000.5 |
| 20260510013357 | 43 | 278 | 4.0 | 6.0 | 0.01 | 0.31 | 0.31 | 93 | 1000.6 |
| 20260510012854 | 43 | 299 | 3.0 | 9.0 | 0.02 | 0.31 | 0.31 | 93 | 1000.6 |
| 20260510012624 | 43 | 286 | 7.0 | 11.0 | 0.02 | 0.31 | 0.31 | 93 | 1000.5 |
| 20260510012122 | 43 | 278 | 7.0 | 11.0 | 0.02 | 0.31 | 0.31 | 93 | 1000.5 |
| 20260510012020 | 44 | 279 | 5.0 | 8.0 | 0.02 | 0.31 | 0.31 | 93 | 1000.3 |
| 20260510010851 | 44 | 279 | 4.0 | 8.0 | 0.02 | 0.31 | 0.31 | 92 | 1000.0 |
| 20260510010351 | 44 | 310 | 2.0 | 10.0 | 0.02 | 0.31 | 0.31 | 92 | 999.9 |
| 20260510005850 | 44 | 286 | 4.0 | 13.0 | 0.01 | 0.30 | 0.30 | 92 | 999.9 |
| 20260510005349 | 44 | 298 | 7.0 | 13.0 | 0.01 | 0.30 | 0.30 | 92 | 999.9 |
| 20260510004847 | 44 | 291 | 6.0 | 18.0 | 0.01 | 0.30 | 0.30 | 92 | 999.8 |
| 20260510004348 | 44 | 313 | 11.0 | 25.0 | 0.01 | 0.30 | 0.30 | 92 | 999.8 |
| 20260510004121 | 44 | 285 | 10.0 | 25.0 | 0.02 | 0.30 | 0.30 | 93 | 999.7 |
| 20260510003347 | 44 | 288 | 11.0 | 24.0 | 0.01 | 0.29 | 0.30 | 93 | 999.6 |
| 20260510002846 | 44 | 305 | 9.0 | 16.0 | 0.01 | 0.29 | 0.29 | 95 | 999.5 |
| 20260510002344 | 44 | 282 | 5.0 | 9.0 | 0.02 | 0.29 | 0.29 | 95 | 999.1 |
| 20260510001842 | 44 | 225 | 4.0 | 9.0 | 0.03 | 0.29 | 0.29 | 95 | 998.8 |
| 20260510001343 | 44 | 254 | 4.0 | 7.0 | 0.04 | 0.29 | 0.29 | 95 | 998.6 |
| 20260510001113 | 44 | 201 | 4.0 | 7.0 | 0.06 | 0.29 | 0.29 | 95 | 998.5 |
| 20260510000341 | 44 | 217 | 3.0 | 7.0 | 0.09 | 0.29 | 0.29 | 95 | 998.4 |
| 20260509235840 | 44 | 253 | 2.0 | 7.0 | 0.09 | 0.29 | 0.29 | 95 | 998.5 |
| 20260509235338 | 44 | 225 | 4.0 | 9.0 | 0.09 | 0.29 | 0.29 | 95 | 998.4 |
| 20260509234839 | 44 | 282 | 2.0 | 9.0 | 0.09 | 0.29 | 0.29 | 95 | 998.4 |
| 20260509234338 | 44 | 243 | 5.0 | 13.0 | 0.10 | 0.29 | 0.29 | 94 | 998.6 |
| 20260509233837 | 44 | 274 | 6.0 | 16.0 | 0.09 | 0.28 | 0.28 | 94 | 998.6 |
| 20260509233336 | 44 | 267 | 8.0 | 16.0 | 0.09 | 0.28 | 0.28 | 94 | 998.4 |
| 20260509232838 | 43 | 277 | 9.0 | 19.0 | 0.09 | 0.28 | 0.28 | 94 | 998.5 |
| 20260509232333 | 43 | 295 | 10.0 | 31.0 | 0.08 | 0.27 | 0.27 | 94 | 998.4 |
| 20260509231833 | 44 | 277 | 10.0 | 31.0 | 0.07 | 0.26 | 0.26 | 93 | 998.6 |
| 20260509231607 | 45 | 250 | 17.0 | 30.0 | 0.06 | 0.25 | 0.25 | 93 | 998.8 |
| 20260509230832 | 47 | 285 | 14.0 | 21.0 | 0.05 | 0.23 | 0.23 | 95 | 998.6 |
| 20260509230601 | 48 | 246 | 10.0 | 16.0 | 0.02 | 0.20 | 0.20 | 95 | 997.7 |
| 20260509230502 | 47 | 222 | 7.0 | 14.0 | 0.02 | 0.20 | 0.20 | 95 | 997.6 |
| 20260509225331 | 48 | 229 | 8.0 | 14.0 | 0.02 | 0.20 | 0.20 | 95 | 997.5 |
| 20260509224828 | 48 | 254 | 5.0 | 14.0 | 0.02 | 0.20 | 0.20 | 95 | 997.4 |
| 20260509224328 | 47 | 267 | 7.0 | 16.0 | 0.01 | 0.19 | 0.19 | 95 | 997.3 |
| 20260509223827 | 48 | 248 | 7.0 | 16.0 | 0.01 | 0.19 | 0.19 | 95 | 997.2 |
| 20260509223325 | 47 | 253 | 11.0 | 16.0 | 0.01 | 0.19 | 0.19 | 95 | 997.1 |
| 20260509222826 | 48 | 261 | 8.0 | 14.0 | 0.01 | 0.19 | 0.19 | 95 | 997.0 |
| 20260509222324 | 47 | 264 | 9.0 | 13.0 | 0.01 | 0.19 | 0.19 | 95 | 996.9 |
| 20260509221824 | 47 | 230 | 8.0 | 12.0 | 0.02 | 0.19 | 0.19 | 95 | 996.9 |
| 20260509221340 | 47 | 248 | 7.0 | 12.0 | 0.03 | 0.19 | 0.19 | 95 | 996.8 |
| 20260509220821 | 48 | 257 | 4.0 | 9.0 | 0.02 | 0.18 | 0.18 | 95 | 996.7 |
| 20260509220555 | 48 | 271 | 4.0 | 9.0 | 0.02 | 0.18 | 0.18 | 95 | 996.7 |
| 20260509215821 | 48 | 257 | 6.0 | 9.0 | 0.02 | 0.18 | 0.18 | 95 | 996.6 |
| 20260509215320 | 48 | 241 | 4.0 | 6.0 | 0.03 | 0.18 | 0.18 | 94 | 996.4 |
| 20260509214819 | 48 | 244 | 4.0 | 6.0 | 0.03 | 0.18 | 0.18 | 94 | 996.4 |
| 20260509214320 | 48 | 243 | 0.0 | 7.0 | 0.03 | 0.18 | 0.18 | 94 | 996.2 |
| 20260509213815 | 48 | 265 | 4.0 | 7.0 | 0.03 | 0.18 | 0.18 | 94 | 996.4 |
| 20260509213314 | 48 | 271 | 4.0 | 11.0 | 0.03 | 0.18 | 0.18 | 94 | 996.3 |
| 20260509213043 | 48 | 220 | 2.0 | 11.0 | 0.03 | 0.18 | 0.18 | 93 | 996.4 |
| 20260509212311 | 48 | 199 | 4.0 | 11.0 | 0.03 | 0.18 | 0.18 | 93 | 996.5 |
| 20260509211811 | 48 | 239 | 4.0 | 6.0 | 0.02 | 0.17 | 0.17 | 93 | 996.5 |
| 20260509211545 | 48 | 225 | 0.0 | 5.0 | 0.01 | 0.16 | 0.16 | 93 | 996.6 |
| 20260509210801 | 48 | 215 | 1.0 | 6.0 | 0.01 | 0.16 | 0.16 | 93 | 996.5 |
| 20260509210306 | 47 | 202 | 0.0 | 9.0 | 0.01 | 0.16 | 0.16 | 93 | 996.6 |
| 20260509205749 | 47 | 240 | 1.0 | 9.0 | 0.01 | 0.16 | 0.16 | 93 | 996.5 |
| 20260509205249 | 47 | 120 | 2.0 | 8.0 | 0.00 | 0.15 | 0.15 | 92 | 996.5 |
| 20260509204758 | 47 | 143 | 0.0 | 6.0 | 0.00 | 0.15 | 0.15 | 93 | 996.5 |
| 20260509204750 | 47 | 253 | 0.0 | 5.0 | 0.00 | 0.15 | 0.15 | 93 | 996.5 |
| 20260509203744 | 47 | 154 | 3.0 | 6.0 | 0.00 | 0.15 | 0.15 | 93 | 996.4 |
| 20260509203518 | 47 | 182 | 0.0 | 4.0 | 0.00 | 0.15 | 0.15 | 92 | 996.4 |
| 20260509202737 | 47 | 212 | 0.0 | 4.0 | 0.00 | 0.15 | 0.15 | 92 | 996.3 |
| 20260509202236 | 47 | 98 | 0.0 | 2.0 | 0.02 | 0.15 | 0.15 | 92 | 996.3 |
| 20260509201729 | 47 | 208 | 0.0 | 3.0 | 0.02 | 0.15 | 0.15 | 92 | 996.4 |
| 20260509201228 | 47 | 208 | 0.0 | 5.0 | 0.05 | 0.15 | 0.15 | 92 | 996.4 |
| 20260509200731 | 46 | 97 | 0.0 | 5.0 | 0.05 | 0.15 | 0.15 | 92 | 996.4 |
| 20260509200221 | 46 | 261 | 0.0 | 5.0 | 0.06 | 0.15 | 0.15 | 92 | 996.5 |
| 20260509195949 | 46 | 177 | 1.0 | 5.0 | 0.06 | 0.15 | 0.15 | 92 | 996.6 |
| 20260509195444 | 46 | 132 | 0.0 | 6.0 | 0.06 | 0.15 | 0.15 | 92 | 996.7 |
| 20260509194702 | 46 | 137 | 0.0 | 12.0 | 0.06 | 0.15 | 0.15 | 92 | 996.9 |
| 20260509194149 | 46 | 135 | 2.0 | 12.0 | 0.07 | 0.15 | 0.15 | 93 | 996.9 |
| 20260509193921 | 46 | 150 | 6.0 | 12.0 | 0.09 | 0.15 | 0.15 | 93 | 996.9 |
| 20260509193147 | 46 | 122 | 4.0 | 10.0 | 0.10 | 0.15 | 0.15 | 93 | 997.0 |
| 20260509192647 | 46 | 153 | 5.0 | 10.0 | 0.09 | 0.14 | 0.15 | 92 | 997.1 |